createdAt,value
2023-05-14T00:01:06.774Z,16.58
2023-05-14T00:03:37.049Z,18.02
2023-05-14T00:06:04.018Z,17.45
2023-05-14T00:08:31.551Z,18.15
2023-05-14T00:10:58.991Z,17.23
2023-05-14T00:13:26.430Z,17.85
2023-05-14T00:15:53.222Z,18.58
2023-05-14T00:18:24.433Z,17.30
2023-05-14T00:21:04.050Z,17.70
2023-05-14T00:23:30.880Z,17.33
2023-05-14T00:25:57.811Z,16.63
2023-05-14T00:28:24.611Z,17.08
2023-05-14T00:30:52.004Z,16.85
2023-05-14T00:33:18.980Z,16.30
2023-05-14T00:35:46.008Z,16.58
2023-05-14T00:38:17.442Z,16.08
2023-05-14T00:40:46.012Z,17.13
2023-05-14T00:43:13.138Z,15.55
2023-05-14T00:45:40.217Z,16.42
2023-05-14T00:48:07.162Z,16.08
2023-05-14T00:50:34.903Z,16.27
2023-05-14T00:53:01.789Z,17.00
2023-05-14T00:55:30.175Z,16.92
2023-05-14T00:57:58.169Z,16.20
2023-05-14T01:00:25.279Z,15.10
2023-05-14T01:02:52.464Z,15.10
2023-05-14T01:05:19.466Z,15.38
2023-05-14T01:07:55.315Z,15.48
2023-05-14T01:10:27.621Z,14.38
2023-05-14T01:13:13.249Z,16.08
2023-05-14T01:15:40.181Z,15.13
2023-05-14T01:18:10.862Z,15.70
2023-05-14T01:20:37.821Z,15.25
2023-05-14T01:23:04.767Z,15.07
2023-05-14T01:25:32.389Z,15.48
2023-05-14T01:28:25.663Z,15.15
2023-05-14T01:31:08.956Z,14.80
2023-05-14T01:33:42.324Z,14.57
2023-05-14T01:36:13.110Z,14.73
2023-05-14T01:38:41.784Z,14.63
2023-05-14T01:41:09.262Z,15.32
2023-05-14T01:43:36.475Z,15.98
2023-05-14T01:46:04.843Z,15.00
2023-05-14T01:48:31.822Z,13.50
2023-05-14T01:50:58.833Z,15.15
2023-05-14T01:53:26.072Z,14.32
2023-05-14T01:55:52.973Z,14.80
2023-05-14T01:58:20.000Z,14.90
2023-05-14T02:00:46.829Z,14.10
2023-05-14T02:03:13.959Z,14.93
2023-05-14T02:05:43.859Z,15.85
2023-05-14T02:08:12.859Z,16.05
2023-05-14T02:10:39.630Z,16.20
2023-05-14T02:13:06.673Z,15.50
2023-05-14T02:15:33.520Z,15.65
2023-05-14T02:18:00.525Z,15.32
2023-05-14T02:20:27.716Z,15.90
2023-05-14T02:22:54.653Z,15.20
2023-05-14T02:25:21.470Z,15.77
2023-05-14T02:27:48.336Z,14.02
2023-05-14T02:30:15.358Z,15.43
2023-05-14T02:32:42.720Z,16.00
2023-05-14T02:35:10.022Z,14.07
2023-05-14T02:37:37.425Z,15.57
2023-05-14T02:40:04.943Z,14.98
2023-05-14T02:42:32.427Z,14.85
2023-05-14T02:44:59.704Z,14.45
2023-05-14T02:47:26.814Z,15.75
2023-05-14T02:49:53.610Z,14.95
2023-05-14T02:52:20.720Z,15.65
2023-05-14T02:54:47.664Z,15.88
2023-05-14T02:57:14.446Z,15.88
2023-05-14T02:59:41.535Z,13.93
2023-05-14T03:02:08.828Z,14.63
2023-05-14T03:04:36.234Z,15.02
2023-05-14T03:07:03.226Z,15.93
2023-05-14T03:09:30.097Z,15.80
2023-05-14T03:11:57.606Z,15.77
2023-05-14T03:14:26.346Z,15.23
2023-05-14T03:16:53.208Z,15.20
2023-05-14T03:19:20.461Z,15.55
2023-05-14T03:21:47.935Z,15.80
2023-05-14T03:24:14.745Z,16.02
2023-05-14T03:26:41.702Z,15.75
2023-05-14T03:29:10.799Z,16.70
2023-05-14T03:31:40.686Z,16.00
2023-05-14T03:34:07.484Z,15.85
2023-05-14T03:36:39.558Z,16.08
2023-05-14T03:39:07.340Z,15.77
2023-05-14T03:41:36.339Z,16.60
2023-05-14T03:44:03.129Z,16.85
2023-05-14T03:46:40.834Z,16.92
2023-05-14T03:49:08.434Z,15.68
2023-05-14T03:51:41.387Z,14.98
2023-05-14T03:54:08.389Z,16.02
2023-05-14T03:56:35.326Z,16.33
2023-05-14T03:59:03.102Z,14.73
2023-05-14T04:01:56.723Z,14.68
2023-05-14T04:04:25.613Z,15.95
2023-05-14T04:06:52.538Z,15.48
2023-05-14T04:09:19.593Z,14.60
2023-05-14T04:11:46.634Z,13.70
2023-05-14T04:14:13.419Z,14.70
2023-05-14T04:16:40.438Z,14.65
2023-05-14T04:19:07.506Z,15.20
2023-05-14T04:21:36.953Z,14.40
2023-05-14T04:24:05.576Z,14.35
2023-05-14T04:26:32.841Z,15.27
2023-05-14T04:29:02.939Z,14.35
2023-05-14T04:31:34.364Z,15.38
2023-05-14T04:34:04.079Z,14.15
2023-05-14T04:36:31.773Z,16.23
2023-05-14T04:38:58.580Z,20.23
2023-05-14T04:41:26.001Z,17.48
2023-05-14T04:43:56.134Z,15.13
2023-05-14T04:46:22.994Z,14.48
2023-05-14T04:48:50.437Z,14.75
2023-05-14T04:51:17.508Z,14.10
2023-05-14T04:53:44.403Z,14.00
2023-05-14T04:56:12.802Z,13.77
2023-05-14T04:58:40.231Z,14.70
2023-05-14T05:01:08.237Z,14.10
2023-05-14T05:03:35.460Z,13.98
2023-05-14T05:06:02.296Z,14.60
2023-05-14T05:08:29.401Z,13.77
2023-05-14T05:10:58.677Z,14.70
2023-05-14T05:13:25.542Z,14.10
2023-05-14T05:15:52.471Z,15.05
2023-05-14T05:18:19.564Z,13.65
2023-05-14T05:20:46.605Z,13.82
2023-05-14T05:23:13.401Z,13.82
2023-05-14T05:25:40.183Z,14.20
2023-05-14T05:28:07.066Z,13.68
2023-05-14T05:30:34.118Z,15.50
2023-05-14T05:33:01.113Z,14.65
2023-05-14T05:35:28.174Z,15.05
2023-05-14T05:37:54.986Z,13.48
2023-05-14T05:40:22.106Z,12.70
2023-05-14T05:42:49.271Z,13.27
2023-05-14T05:45:16.255Z,13.07
2023-05-14T05:47:43.543Z,12.57
2023-05-14T05:50:10.817Z,13.50
2023-05-14T05:52:37.800Z,13.80
2023-05-14T05:55:04.999Z,13.73
2023-05-14T05:57:32.124Z,12.45
2023-05-14T05:59:59.008Z,12.82
2023-05-14T06:02:25.983Z,13.30
2023-05-14T06:04:53.255Z,12.18
2023-05-14T06:07:20.187Z,12.80
2023-05-14T06:09:47.026Z,12.50
2023-05-14T06:12:13.847Z,12.25
2023-05-14T06:14:40.666Z,11.82
2023-05-14T06:17:07.656Z,12.07
2023-05-14T06:19:34.392Z,11.73
2023-05-14T06:22:02.966Z,12.23
2023-05-14T06:24:29.830Z,11.18
2023-05-14T06:26:56.820Z,10.85
2023-05-14T06:29:23.678Z,11.80
2023-05-14T06:31:51.761Z,10.95
2023-05-14T06:34:20.553Z,10.60
2023-05-14T06:36:48.079Z,11.02
2023-05-14T06:39:14.988Z,11.02
2023-05-14T06:41:42.350Z,10.60
2023-05-14T06:44:14.631Z,10.32
2023-05-14T06:46:48.484Z,10.70
2023-05-14T06:49:21.740Z,10.38
2023-05-14T06:51:55.953Z,10.32
2023-05-14T06:54:24.522Z,10.30
2023-05-14T06:56:51.389Z,10.55
2023-05-14T06:59:18.822Z,10.07
2023-05-14T07:01:46.661Z,10.52
2023-05-14T07:04:14.582Z,11.23
2023-05-14T07:06:41.790Z,10.35
2023-05-14T07:09:09.014Z,10.85
2023-05-14T07:11:35.779Z,10.27
2023-05-14T07:14:02.561Z,11.90
2023-05-14T07:16:31.699Z,11.27
2023-05-14T07:18:58.925Z,10.80
2023-05-14T07:21:26.269Z,10.80
2023-05-14T07:23:53.278Z,11.10
2023-05-14T07:26:20.327Z,10.30
2023-05-14T07:28:47.207Z,10.57
2023-05-14T07:31:14.114Z,10.65
2023-05-14T07:33:41.322Z,10.32
2023-05-14T07:36:09.351Z,11.32
2023-05-14T07:38:37.149Z,11.02
2023-05-14T07:41:04.630Z,10.30
2023-05-14T07:43:31.886Z,11.30
2023-05-14T07:45:58.919Z,10.85
2023-05-14T07:48:25.881Z,11.85
2023-05-14T07:50:52.768Z,11.65
2023-05-14T07:53:19.812Z,12.48
2023-05-14T07:55:48.424Z,12.13
2023-05-14T07:58:16.474Z,11.63
2023-05-14T08:00:43.710Z,10.65
2023-05-14T08:03:10.856Z,10.65
2023-05-14T08:05:39.216Z,10.55
2023-05-14T08:08:05.967Z,11.07
2023-05-14T08:10:33.192Z,11.23
2023-05-14T08:13:00.048Z,10.77
2023-05-14T08:15:27.976Z,10.23
2023-05-14T08:17:55.130Z,9.57
2023-05-14T08:20:22.716Z,9.32
2023-05-14T08:22:51.525Z,10.30
2023-05-14T08:25:18.697Z,9.93
2023-05-14T08:27:45.921Z,9.73
2023-05-14T08:30:13.150Z,9.95
2023-05-14T08:32:40.078Z,9.63
2023-05-14T08:35:07.123Z,8.50
2023-05-14T08:37:34.110Z,9.32
2023-05-14T08:40:01.570Z,8.63
2023-05-14T08:42:28.977Z,9.32
2023-05-14T08:45:06.351Z,9.25
2023-05-14T08:47:33.506Z,9.15
2023-05-14T08:50:07.523Z,8.45
2023-05-14T08:52:34.676Z,8.48
2023-05-14T08:55:04.208Z,9.10
2023-05-14T08:57:32.067Z,7.90
2023-05-14T08:59:59.333Z,8.18
2023-05-14T09:02:30.115Z,9.10
2023-05-14T09:05:00.697Z,8.63
2023-05-14T09:07:27.623Z,8.52
2023-05-14T09:09:54.752Z,8.52
2023-05-14T09:12:21.862Z,8.43
2023-05-14T09:14:49.828Z,8.05
2023-05-14T09:17:17.528Z,7.60
2023-05-14T09:19:47.450Z,7.78
2023-05-14T09:22:18.603Z,6.90
2023-05-14T09:24:45.748Z,6.63
2023-05-14T09:27:19.872Z,6.65
2023-05-14T09:29:47.661Z,6.20
2023-05-14T09:32:14.545Z,7.07
2023-05-14T09:34:41.515Z,6.55
2023-05-14T09:37:08.966Z,5.57
2023-05-14T09:39:36.769Z,6.13
2023-05-14T09:42:03.729Z,7.20
2023-05-14T09:44:30.626Z,6.35
2023-05-14T09:46:57.811Z,6.45
2023-05-14T09:49:24.703Z,6.03
2023-05-14T09:51:51.700Z,6.72
2023-05-14T09:54:18.942Z,7.38
2023-05-14T09:56:46.715Z,7.38
2023-05-14T09:59:13.570Z,6.82
2023-05-14T10:01:42.564Z,7.43
2023-05-14T10:04:09.998Z,8.50
2023-05-14T10:06:37.790Z,7.30
2023-05-14T10:09:09.791Z,8.20
2023-05-14T10:11:37.750Z,8.05
2023-05-14T10:14:18.771Z,6.95
2023-05-14T10:16:49.959Z,7.38
2023-05-14T10:19:19.137Z,8.45
2023-05-14T10:21:49.158Z,7.53
2023-05-14T10:24:16.531Z,7.72
2023-05-14T10:26:45.760Z,7.30
2023-05-14T10:29:13.088Z,7.60
2023-05-14T10:31:56.436Z,7.00
2023-05-14T10:34:33.957Z,7.70
2023-05-14T10:37:01.766Z,7.57
2023-05-14T10:39:41.001Z,6.70
2023-05-14T10:42:11.357Z,7.32
2023-05-14T10:44:40.987Z,7.38
2023-05-14T10:47:08.079Z,6.57
2023-05-14T10:49:42.991Z,6.85
2023-05-14T10:52:12.303Z,6.32
2023-05-14T10:54:39.299Z,6.10
2023-05-14T10:57:09.694Z,6.47
2023-05-14T10:59:41.331Z,7.05
2023-05-14T11:02:18.718Z,6.80
2023-05-14T11:04:52.260Z,6.90
2023-05-14T11:07:22.680Z,6.50
2023-05-14T11:09:50.241Z,7.20
2023-05-14T11:12:18.168Z,6.05
2023-05-14T11:14:45.050Z,6.35
2023-05-14T11:17:12.220Z,5.65
2023-05-14T11:19:39.257Z,5.95
2023-05-14T11:22:06.713Z,6.30
2023-05-14T11:24:37.317Z,5.95
2023-05-14T11:27:04.869Z,5.88
2023-05-14T11:29:33.358Z,6.20
2023-05-14T11:32:06.470Z,5.43
2023-05-14T11:34:34.872Z,6.20
2023-05-14T11:37:05.241Z,5.60
2023-05-14T11:39:34.072Z,5.35
2023-05-14T11:42:03.495Z,5.88
2023-05-14T11:44:31.736Z,5.45
2023-05-14T11:46:59.366Z,5.80
2023-05-14T11:49:29.026Z,7.00
2023-05-14T11:51:59.771Z,6.07
2023-05-14T11:54:31.385Z,6.03
2023-05-14T11:56:59.986Z,6.60
2023-05-14T11:59:32.537Z,6.68
2023-05-14T12:02:02.957Z,6.35
2023-05-14T12:04:30.124Z,5.97
2023-05-14T12:06:58.315Z,5.40
2023-05-14T12:09:25.473Z,5.82
2023-05-14T12:11:53.012Z,6.03
2023-05-14T12:14:23.728Z,5.60
2023-05-14T12:16:53.538Z,5.15
2023-05-14T12:19:23.439Z,6.50
2023-05-14T12:21:52.904Z,6.18
2023-05-14T12:24:20.195Z,5.55
2023-05-14T12:26:48.286Z,5.63
2023-05-14T12:29:15.767Z,6.32
2023-05-14T12:31:48.186Z,6.93
2023-05-14T12:34:16.700Z,6.03
2023-05-14T12:36:47.902Z,6.53
2023-05-14T12:39:15.250Z,6.07
2023-05-14T12:41:42.092Z,5.85
2023-05-14T12:44:09.650Z,5.43
2023-05-14T12:46:37.793Z,5.75
2023-05-14T12:49:06.904Z,5.00
2023-05-14T12:51:34.319Z,5.38
2023-05-14T12:54:01.583Z,5.18
2023-05-14T12:56:32.257Z,6.88
2023-05-14T12:58:59.281Z,6.10
2023-05-14T13:01:26.981Z,6.10
2023-05-14T13:04:01.085Z,6.10
2023-05-14T13:06:29.980Z,5.93
2023-05-14T13:09:00.050Z,5.03
2023-05-14T13:11:30.054Z,5.60
2023-05-14T13:13:59.087Z,6.15
2023-05-14T13:16:26.730Z,5.90
2023-05-14T13:18:56.619Z,5.28
2023-05-14T13:21:23.865Z,5.80
2023-05-14T13:23:51.523Z,5.60
2023-05-14T13:26:20.434Z,5.85
2023-05-14T13:28:48.687Z,5.38
2023-05-14T13:31:15.725Z,5.38
2023-05-14T13:33:43.757Z,5.25
2023-05-14T13:36:12.121Z,6.15
2023-05-14T13:38:40.944Z,5.93
2023-05-14T13:41:08.273Z,5.25
2023-05-14T13:43:36.664Z,5.55
2023-05-14T13:46:04.099Z,5.07
2023-05-14T13:48:31.783Z,5.60
2023-05-14T13:50:58.761Z,4.75
2023-05-14T13:53:26.300Z,5.35
2023-05-14T13:55:56.722Z,4.95
2023-05-14T13:58:25.162Z,4.90
2023-05-14T14:00:53.831Z,5.20
2023-05-14T14:03:21.057Z,5.13
2023-05-14T14:05:47.899Z,5.20
2023-05-14T14:08:23.409Z,5.40
2023-05-14T14:10:51.681Z,5.07
2023-05-14T14:13:18.890Z,5.68
2023-05-14T14:15:47.852Z,5.03
2023-05-14T14:18:14.653Z,5.90
2023-05-14T14:20:41.529Z,5.88
2023-05-14T14:23:08.593Z,6.10
2023-05-14T14:25:35.630Z,5.85
2023-05-14T14:28:02.524Z,5.97
2023-05-14T14:30:29.403Z,6.03
2023-05-14T14:32:56.343Z,5.75
2023-05-14T14:35:23.751Z,6.03
2023-05-14T14:37:53.692Z,5.32
2023-05-14T14:40:23.574Z,5.63
2023-05-14T14:42:50.688Z,6.25
2023-05-14T14:45:17.810Z,6.50
2023-05-14T14:47:46.524Z,6.28
2023-05-14T14:50:13.531Z,6.72
2023-05-14T14:52:45.434Z,6.68
2023-05-14T14:55:13.071Z,7.25
2023-05-14T14:57:39.971Z,6.53
2023-05-14T15:00:07.618Z,7.38
2023-05-14T15:02:34.971Z,6.53
2023-05-14T15:05:02.022Z,6.22
2023-05-14T15:07:32.957Z,6.18
2023-05-14T15:10:00.760Z,6.13
2023-05-14T15:12:27.722Z,6.28
2023-05-14T15:14:54.677Z,7.13
2023-05-14T15:17:22.130Z,7.63
2023-05-14T15:19:48.992Z,6.22
2023-05-14T15:22:16.027Z,6.00
2023-05-14T15:24:43.145Z,5.60
2023-05-14T15:27:10.371Z,5.75
2023-05-14T15:29:41.537Z,6.28
2023-05-14T15:32:08.374Z,6.40
2023-05-14T15:34:35.149Z,6.47
2023-05-14T15:37:02.006Z,6.50
2023-05-14T15:39:30.206Z,6.43
2023-05-14T15:41:57.477Z,7.05
2023-05-14T15:44:24.450Z,6.82
2023-05-14T15:46:54.244Z,6.22
2023-05-14T15:49:21.167Z,7.13
2023-05-14T15:51:48.284Z,6.88
2023-05-14T15:54:15.574Z,7.15
2023-05-14T15:56:44.317Z,9.20
2023-05-14T15:59:11.417Z,12.40
2023-05-14T16:01:38.925Z,10.02
2023-05-14T16:04:06.155Z,7.32
2023-05-14T16:06:34.148Z,6.50
2023-05-14T16:09:02.822Z,7.68
2023-05-14T16:11:30.955Z,7.65
2023-05-14T16:13:58.921Z,6.75
2023-05-14T16:16:26.855Z,6.65
2023-05-14T16:19:03.653Z,7.53
2023-05-14T16:21:32.215Z,7.50
2023-05-14T16:23:59.710Z,8.38
2023-05-14T16:26:31.634Z,8.60
2023-05-14T16:28:58.469Z,8.20
2023-05-14T16:31:25.494Z,7.55
2023-05-14T16:33:56.834Z,7.85
2023-05-14T16:36:24.967Z,7.70
2023-05-14T16:41:32.409Z,7.40
2023-05-14T16:44:00.071Z,8.13
2023-05-14T16:46:30.744Z,8.85
2023-05-14T16:48:58.901Z,8.00
2023-05-14T16:51:25.890Z,8.20
2023-05-14T16:53:57.016Z,8.32
2023-05-14T16:56:24.934Z,8.05
2023-05-14T16:58:51.902Z,8.40
2023-05-14T17:01:19.205Z,9.73
2023-05-14T17:03:46.857Z,9.45
2023-05-14T17:06:13.718Z,9.65
2023-05-14T17:08:41.536Z,9.90
2023-05-14T17:11:13.015Z,9.95
2023-05-14T17:13:39.921Z,9.48
2023-05-14T17:16:08.388Z,9.82
2023-05-14T17:18:38.019Z,11.70
2023-05-14T17:21:07.020Z,10.82
2023-05-14T17:23:34.399Z,10.82
2023-05-14T17:26:01.396Z,11.05
2023-05-14T17:28:29.890Z,10.57
2023-05-14T17:30:56.953Z,10.38
2023-05-14T17:33:24.007Z,10.57
2023-05-14T17:35:51.145Z,9.95
2023-05-14T17:38:17.936Z,10.23
2023-05-14T17:40:45.193Z,9.70
2023-05-14T17:43:12.152Z,10.63
2023-05-14T17:45:52.535Z,11.35
2023-05-14T17:48:21.016Z,10.25
2023-05-14T17:50:47.916Z,10.93
2023-05-14T17:53:14.779Z,10.55
2023-05-14T17:55:43.408Z,10.15
2023-05-14T17:58:15.436Z,10.27
2023-05-14T18:00:43.755Z,12.48
2023-05-14T18:03:11.612Z,10.00
2023-05-14T18:05:39.502Z,10.68
2023-05-14T18:08:07.078Z,9.88
2023-05-14T18:10:34.129Z,9.63
2023-05-14T18:13:01.010Z,9.77
2023-05-14T18:15:31.822Z,9.20
2023-05-14T18:20:25.560Z,9.20
2023-05-14T18:22:52.459Z,8.40
2023-05-14T18:25:19.382Z,8.80
2023-05-14T18:27:47.109Z,8.35
2023-05-14T18:30:15.144Z,9.50
2023-05-14T18:32:43.701Z,9.52
2023-05-14T18:35:10.935Z,9.55
2023-05-14T18:37:38.250Z,9.43
2023-05-14T18:40:07.039Z,8.13
2023-05-14T18:42:34.359Z,8.65
2023-05-14T18:45:02.043Z,9.32
2023-05-14T18:47:29.896Z,8.57
2023-05-14T18:49:59.425Z,7.75
2023-05-14T18:52:26.742Z,7.68
2023-05-14T18:54:54.893Z,7.70
2023-05-14T18:57:23.730Z,7.82
2023-05-14T18:59:52.996Z,7.68
2023-05-14T19:02:19.967Z,7.65
2023-05-14T19:04:53.011Z,8.90
2023-05-14T19:07:23.451Z,8.13
2023-05-14T19:09:50.840Z,8.10
2023-05-14T19:12:18.114Z,7.68
2023-05-14T19:14:45.233Z,7.72
2023-05-14T19:17:12.518Z,7.00
2023-05-14T19:19:39.549Z,7.72
2023-05-14T19:24:42.503Z,7.90
2023-05-14T19:27:10.029Z,8.45
2023-05-14T19:29:44.061Z,7.65
2023-05-14T19:32:11.153Z,8.00
2023-05-14T19:34:38.203Z,8.00
2023-05-14T19:37:05.165Z,8.75
2023-05-14T19:39:35.307Z,8.50
2023-05-14T19:42:04.584Z,8.00
2023-05-14T19:44:32.488Z,8.43
2023-05-14T19:47:02.184Z,8.07
2023-05-14T19:49:29.663Z,8.55
2023-05-14T19:51:56.464Z,8.43
2023-05-14T19:54:25.944Z,7.88
2023-05-14T19:56:52.881Z,8.75
2023-05-14T20:01:55.115Z,9.15
2023-05-14T20:04:22.342Z,9.18
2023-05-14T20:06:49.379Z,8.45
2023-05-14T20:09:16.551Z,8.95
2023-05-14T20:11:48.918Z,9.10
2023-05-14T20:14:15.898Z,8.18
2023-05-14T20:16:47.841Z,8.80
2023-05-14T20:19:21.424Z,8.80
2023-05-14T20:21:49.038Z,9.68
2023-05-14T20:24:15.832Z,8.57
2023-05-14T20:26:46.696Z,8.63
2023-05-14T20:29:14.552Z,9.05
2023-05-14T20:31:41.583Z,8.75
2023-05-14T20:34:29.141Z,10.15
2023-05-14T20:36:56.130Z,9.55
2023-05-14T20:39:23.112Z,9.57
2023-05-14T20:41:50.006Z,9.27
2023-05-14T20:44:18.350Z,9.48
2023-05-14T20:46:57.238Z,9.55
2023-05-14T20:49:24.128Z,9.05
2023-05-14T20:51:51.110Z,10.13
2023-05-14T20:54:17.951Z,10.20
2023-05-14T20:56:48.322Z,10.27
2023-05-14T20:59:15.111Z,10.13
2023-05-14T21:01:44.145Z,10.57
2023-05-14T21:04:21.756Z,10.85
2023-05-14T21:06:48.804Z,11.02
2023-05-14T21:09:15.676Z,10.55
2023-05-14T21:11:46.359Z,10.57
2023-05-14T21:14:13.303Z,11.02
2023-05-14T21:16:40.291Z,11.27
2023-05-14T21:19:07.324Z,11.27
2023-05-14T21:21:34.239Z,11.23
2023-05-14T21:24:01.307Z,10.60
2023-05-14T21:26:31.535Z,10.52
2023-05-14T21:28:58.961Z,10.38
2023-05-14T21:31:25.811Z,10.90
2023-05-14T21:33:56.539Z,10.48
2023-05-14T21:36:24.302Z,10.68
2023-05-14T21:39:05.211Z,10.60
2023-05-14T21:41:37.668Z,10.80
2023-05-14T21:44:07.573Z,10.60
2023-05-14T21:46:54.774Z,10.68
2023-05-14T21:49:21.631Z,10.85
2023-05-14T21:51:58.338Z,9.95
2023-05-14T21:54:25.450Z,11.18
2023-05-14T21:56:52.656Z,10.93
2023-05-14T21:59:19.449Z,10.80
2023-05-14T22:04:24.110Z,10.52
2023-05-14T22:06:51.946Z,10.68
2023-05-14T22:09:18.784Z,11.07
2023-05-14T22:11:46.294Z,10.70
2023-05-14T22:14:16.623Z,11.13
2023-05-14T22:16:46.558Z,11.07
2023-05-14T22:19:15.918Z,11.10
2023-05-14T22:21:45.740Z,11.18
2023-05-14T22:24:13.050Z,10.73
2023-05-14T22:26:39.825Z,11.23
2023-05-14T22:29:06.534Z,11.30
2023-05-14T22:31:38.029Z,11.05
2023-05-14T22:34:05.002Z,11.82
2023-05-14T22:36:31.950Z,11.48
2023-05-14T22:39:02.787Z,11.90
2023-05-14T22:41:31.234Z,10.98
2023-05-14T22:43:58.137Z,15.30
2023-05-14T22:46:25.124Z,11.55
2023-05-14T22:48:52.294Z,11.48
2023-05-14T22:51:19.162Z,10.88
2023-05-14T22:53:47.622Z,11.63
2023-05-14T22:56:14.956Z,11.60
2023-05-14T22:58:41.862Z,11.73
2023-05-14T23:01:09.092Z,12.63
2023-05-14T23:03:36.288Z,12.13
2023-05-14T23:06:03.174Z,13.10
2023-05-14T23:08:30.110Z,11.52
2023-05-14T23:10:56.950Z,12.25
2023-05-14T23:13:23.796Z,12.48
2023-05-14T23:15:50.790Z,13.25
2023-05-14T23:18:17.810Z,11.23
2023-05-14T23:20:44.643Z,11.02
2023-05-14T23:23:11.562Z,12.10
2023-05-14T23:25:40.715Z,13.82
2023-05-14T23:28:09.312Z,12.05
2023-05-14T23:30:36.475Z,14.48
2023-05-14T23:33:03.439Z,13.80
2023-05-14T23:35:30.322Z,14.15
2023-05-14T23:37:57.042Z,16.05
2023-05-14T23:40:23.961Z,15.82
2023-05-14T23:42:50.939Z,15.63
2023-05-14T23:45:17.963Z,16.58
2023-05-14T23:47:44.910Z,16.58
2023-05-14T23:50:11.713Z,17.92
2023-05-14T23:52:38.605Z,18.05
2023-05-14T23:55:05.910Z,18.13
2023-05-14T23:57:32.922Z,17.73
2023-05-14T23:59:59.802Z,17.42
